Time;durP1;ratioP1;P1;durP2;ratioP2;P2;SDS_P1;SDS_P2;PMS_P1;PMS_P2;Temp;Humidity;BMP_temperature;BMP_pressure;BME280_temperature;BME280_humidity;BME280_pressure;Samples;Min_cycle;Max_cycle;Signal;HPM_P1;HPM_P2
2023/08/18 00:01:26;;;;;;;6.70;4.50;;;;;;;;;;5060385;28;20494;-66
2023/08/18 00:03:54;;;;;;;5.20;4.07;;;;;;;;;;5062003;28;20237;-67
2023/08/18 00:06:21;;;;;;;5.68;4.13;;;;;;;;;;5058888;28;20714;-68
2023/08/18 00:08:48;;;;;;;5.63;4.50;;;;;;;;;;5061519;28;20691;-67
2023/08/18 00:11:15;;;;;;;4.93;4.43;;;;;;;;;;5065133;28;20671;-66
2023/08/18 00:13:43;;;;;;;6.45;4.78;;;;;;;;;;5063433;28;20206;-67
2023/08/18 00:16:10;;;;;;;5.53;4.30;;;;;;;;;;5061656;28;20283;-67
2023/08/18 00:18:37;;;;;;;4.85;4.35;;;;;;;;;;5068872;28;20225;-68
2023/08/18 00:21:05;;;;;;;4.85;4.45;;;;;;;;;;5076997;28;20206;-69
2023/08/18 00:23:32;;;;;;;5.07;4.20;;;;;;;;;;5063110;28;20230;-66
2023/08/18 00:25:59;;;;;;;5.60;4.45;;;;;;;;;;5062697;28;20255;-66
2023/08/18 00:28:26;;;;;;;4.88;4.38;;;;;;;;;;5061936;28;20205;-66
2023/08/18 00:30:54;;;;;;;5.90;4.22;;;;;;;;;;5064381;28;20208;-68
2023/08/18 00:33:21;;;;;;;6.13;4.53;;;;;;;;;;5061530;28;20241;-66
2023/08/18 00:35:48;;;;;;;7.75;4.65;;;;;;;;;;5065223;28;20206;-66
2023/08/18 00:38:15;;;;;;;7.35;4.80;;;;;;;;;;5058308;28;20209;-65
2023/08/18 00:40:43;;;;;;;5.63;4.95;;;;;;;;;;5059417;28;20268;-67
2023/08/18 00:43:10;;;;;;;5.65;5.07;;;;;;;;;;5059233;28;20248;-66
2023/08/18 00:45:37;;;;;;;6.18;4.57;;;;;;;;;;5058833;28;20298;-67
2023/08/18 00:48:05;;;;;;;6.90;5.10;;;;;;;;;;5059619;28;20597;-67
2023/08/18 00:50:32;;;;;;;6.05;4.55;;;;;;;;;;5055173;28;20214;-66
2023/08/18 00:53:00;;;;;;;6.30;4.90;;;;;;;;;;5057873;28;20201;-66
2023/08/18 00:55:28;;;;;;;5.30;4.53;;;;;;;;;;5058974;28;20225;-66
2023/08/18 00:57:56;;;;;;;5.65;4.45;;;;;;;;;;5064137;28;20463;-66
2023/08/18 01:00:23;;;;;;;5.53;4.95;;;;;;;;;;5061597;28;21010;-68
2023/08/18 01:02:51;;;;;;;8.95;4.72;;;;;;;;;;5054442;28;20198;-67
2023/08/18 01:05:18;;;;;;;5.43;4.93;;;;;;;;;;5059213;28;20288;-65
2023/08/18 01:07:46;;;;;;;7.00;5.43;;;;;;;;;;5060970;28;20218;-66
2023/08/18 01:10:14;;;;;;;6.93;5.32;;;;;;;;;;5058835;28;20218;-65
2023/08/18 01:12:53;;;;;;;6.28;5.25;;;;;;;;;;5059951;28;20720;-68
2023/08/18 01:15:25;;;;;;;7.78;5.60;;;;;;;;;;5060559;28;20250;-67
2023/08/18 01:17:54;;;;;;;7.80;5.75;;;;;;;;;;5062883;28;20221;-67
2023/08/18 01:20:22;;;;;;;6.38;5.13;;;;;;;;;;5060423;28;20263;-67
2023/08/18 01:22:54;;;;;;;6.13;5.53;;;;;;;;;;5062625;28;20289;-67
2023/08/18 01:25:21;;;;;;;9.45;6.15;;;;;;;;;;5055741;28;20749;-67
2023/08/18 01:27:48;;;;;;;6.70;5.82;;;;;;;;;;5062293;28;20230;-66
2023/08/18 01:30:19;;;;;;;8.13;6.18;;;;;;;;;;5061009;28;20205;-66
2023/08/18 01:33:04;;;;;;;7.47;5.30;;;;;;;;;;5057349;28;20203;-67
2023/08/18 01:35:32;;;;;;;6.15;5.60;;;;;;;;;;5059819;28;20281;-67
2023/08/18 01:38:00;;;;;;;9.13;5.68;;;;;;;;;;5056926;28;20610;-67
2023/08/18 01:40:28;;;;;;;5.88;5.38;;;;;;;;;;5057500;28;20229;-65
2023/08/18 01:42:58;;;;;;;9.00;5.65;;;;;;;;;;5060838;28;20194;-67
2023/08/18 01:45:25;;;;;;;7.75;5.47;;;;;;;;;;5059696;28;20228;-68
2023/08/18 01:47:52;;;;;;;6.00;5.40;;;;;;;;;;5056746;28;20733;-67
2023/08/18 01:50:20;;;;;;;5.25;4.82;;;;;;;;;;5060361;28;20257;-67
2023/08/18 01:52:47;;;;;;;6.60;4.95;;;;;;;;;;5058849;28;20239;-66
2023/08/18 01:55:14;;;;;;;4.85;4.13;;;;;;;;;;5055960;28;20213;-67
2023/08/18 01:57:42;;;;;;;8.15;4.30;;;;;;;;;;5055123;28;20764;-66
2023/08/18 02:00:09;;;;;;;8.52;4.38;;;;;;;;;;5055841;28;20268;-68
2023/08/18 02:02:46;;;;;;;6.43;4.63;;;;;;;;;;5055624;28;20209;-67
2023/08/18 02:05:14;;;;;;;6.50;4.38;;;;;;;;;;5060075;28;20332;-67
2023/08/18 02:07:41;;;;;;;4.75;4.20;;;;;;;;;;5060671;28;20221;-68
2023/08/18 02:10:08;;;;;;;4.43;4.03;;;;;;;;;;5056950;28;20228;-66
2023/08/18 02:12:35;;;;;;;6.00;4.03;;;;;;;;;;5063756;28;20198;-66
2023/08/18 02:15:03;;;;;;;7.43;3.97;;;;;;;;;;5059436;28;20257;-66
2023/08/18 02:17:30;;;;;;;5.60;4.53;;;;;;;;;;5059615;28;20699;-68
2023/08/18 02:20:01;;;;;;;4.40;4.00;;;;;;;;;;5059851;28;20205;-66
2023/08/18 02:22:29;;;;;;;5.85;4.00;;;;;;;;;;5056581;28;20240;-67
2023/08/18 02:24:56;;;;;;;7.30;3.85;;;;;;;;;;5052559;28;20252;-66
2023/08/18 02:27:23;;;;;;;5.68;3.90;;;;;;;;;;5062571;28;20221;-64
2023/08/18 02:29:51;;;;;;;6.07;3.78;;;;;;;;;;5057064;28;20640;-68
2023/08/18 02:32:18;;;;;;;5.93;4.20;;;;;;;;;;5055471;28;20209;-66
2023/08/18 02:34:46;;;;;;;4.47;4.07;;;;;;;;;;5060261;28;20588;-65
2023/08/18 02:37:13;;;;;;;4.85;4.00;;;;;;;;;;5056577;28;21890;-68
2023/08/18 02:39:41;;;;;;;6.10;4.18;;;;;;;;;;5058347;28;20264;-66
2023/08/18 02:42:08;;;;;;;4.30;3.90;;;;;;;;;;5056454;28;20206;-67
2023/08/18 02:44:35;;;;;;;4.80;3.95;;;;;;;;;;5059828;28;20214;-65
2023/08/18 02:47:03;;;;;;;4.50;4.10;;;;;;;;;;5061297;28;20222;-67
2023/08/18 02:49:30;;;;;;;5.63;3.67;;;;;;;;;;5064281;28;20202;-67
2023/08/18 02:51:57;;;;;;;3.95;3.38;;;;;;;;;;5058812;28;20629;-67
2023/08/18 02:54:24;;;;;;;4.85;3.58;;;;;;;;;;5051485;28;20197;-67
2023/08/18 02:56:52;;;;;;;5.15;3.75;;;;;;;;;;5060054;28;20229;-67
2023/08/18 02:59:19;;;;;;;6.00;3.60;;;;;;;;;;5054816;28;20205;-68
2023/08/18 03:01:46;;;;;;;5.05;3.55;;;;;;;;;;5061966;28;20289;-68
2023/08/18 03:04:14;;;;;;;4.32;3.63;;;;;;;;;;5056380;28;20933;-68
2023/08/18 03:06:42;;;;;;;6.60;4.50;;;;;;;;;;5065486;28;20229;-69
2023/08/18 03:09:09;;;;;;;6.63;4.43;;;;;;;;;;5084377;28;20205;-67
2023/08/18 03:11:36;;;;;;;5.57;4.22;;;;;;;;;;5063682;28;20202;-68
2023/08/18 03:14:05;;;;;;;4.43;4.00;;;;;;;;;;5062033;28;20210;-67
2023/08/18 03:16:33;;;;;;;4.00;3.70;;;;;;;;;;5065784;28;20601;-67
2023/08/18 03:19:00;;;;;;;8.07;4.30;;;;;;;;;;5060513;28;20210;-66
2023/08/18 03:21:27;;;;;;;5.03;3.60;;;;;;;;;;5063537;28;20201;-67
2023/08/18 03:23:54;;;;;;;4.40;4.00;;;;;;;;;;5056333;28;20221;-66
2023/08/18 03:26:22;;;;;;;6.47;4.55;;;;;;;;;;5061062;28;20222;-68
2023/08/18 03:28:51;;;;;;;4.45;4.05;;;;;;;;;;5063937;28;20209;-67
2023/08/18 03:31:18;;;;;;;9.57;4.50;;;;;;;;;;5056660;28;20194;-67
2023/08/18 03:33:45;;;;;;;6.35;4.03;;;;;;;;;;5062831;28;20655;-66
2023/08/18 03:36:13;;;;;;;9.55;4.53;;;;;;;;;;5060500;28;20226;-67
2023/08/18 03:38:40;;;;;;;7.15;4.10;;;;;;;;;;5062831;28;20621;-68
2023/08/18 03:41:07;;;;;;;7.10;4.70;;;;;;;;;;5057844;28;20643;-67
2023/08/18 03:43:35;;;;;;;5.50;4.15;;;;;;;;;;5064857;28;20202;-68
2023/08/18 03:46:22;;;;;;;6.47;4.63;;;;;;;;;;5060686;28;20663;-66
2023/08/18 03:48:50;;;;;;;7.68;4.75;;;;;;;;;;5061502;28;20198;-67
2023/08/18 03:51:17;;;;;;;7.80;5.03;;;;;;;;;;5058299;28;20206;-67
2023/08/18 03:53:44;;;;;;;5.97;4.75;;;;;;;;;;5060993;28;20247;-69
2023/08/18 03:56:12;;;;;;;7.28;4.65;;;;;;;;;;5050603;28;20218;-66
2023/08/18 03:58:39;;;;;;;7.03;5.15;;;;;;;;;;5056934;28;20224;-68
2023/08/18 04:01:08;;;;;;;5.28;4.78;;;;;;;;;;5055696;28;20206;-66
2023/08/18 04:03:37;;;;;;;5.60;4.97;;;;;;;;;;5051594;28;20280;-67
2023/08/18 04:06:04;;;;;;;5.65;5.07;;;;;;;;;;5061088;28;20658;-67
2023/08/18 04:08:33;;;;;;;5.40;4.90;;;;;;;;;;5055159;28;20201;-67
2023/08/18 04:11:02;;;;;;;7.00;4.80;;;;;;;;;;5052719;28;20209;-64
2023/08/18 04:13:29;;;;;;;5.72;4.40;;;;;;;;;;5058257;28;20725;-66
2023/08/18 04:15:57;;;;;;;5.50;5.00;;;;;;;;;;5058404;28;20207;-64
2023/08/18 04:18:25;;;;;;;6.22;4.90;;;;;;;;;;5059511;28;20197;-66
2023/08/18 04:20:52;;;;;;;6.00;5.32;;;;;;;;;;5054895;28;20206;-67
2023/08/18 04:23:19;;;;;;;6.10;5.00;;;;;;;;;;5062503;28;20213;-65
2023/08/18 04:25:47;;;;;;;5.60;4.85;;;;;;;;;;5061223;28;20636;-66
2023/08/18 04:28:14;;;;;;;6.53;4.90;;;;;;;;;;5061034;28;20702;-68
2023/08/18 04:30:44;;;;;;;5.38;4.88;;;;;;;;;;5056584;28;20206;-66
2023/08/18 04:33:12;;;;;;;6.13;4.93;;;;;;;;;;5056840;28;20201;-65
2023/08/18 04:35:39;;;;;;;5.75;4.90;;;;;;;;;;5060502;28;20684;-65
2023/08/18 04:38:07;;;;;;;7.20;5.30;;;;;;;;;;5056415;28;20699;-66
2023/08/18 04:40:34;;;;;;;6.32;5.25;;;;;;;;;;5060425;28;20216;-66
2023/08/18 04:43:02;;;;;;;5.97;5.25;;;;;;;;;;5067691;28;20278;-65
2023/08/18 04:45:29;;;;;;;6.32;5.50;;;;;;;;;;5062367;28;20229;-69
2023/08/18 04:47:56;;;;;;;5.78;5.22;;;;;;;;;;5060853;28;20240;-65
2023/08/18 04:50:26;;;;;;;5.43;4.93;;;;;;;;;;5059466;28;20261;-66
2023/08/18 04:52:53;;;;;;;5.85;5.10;;;;;;;;;;5054942;28;20198;-65
2023/08/18 04:55:20;;;;;;;6.90;5.13;;;;;;;;;;5056427;28;20213;-66
2023/08/18 04:57:47;;;;;;;6.70;5.82;;;;;;;;;;5061721;28;20233;-66
2023/08/18 05:00:15;;;;;;;6.55;5.47;;;;;;;;;;5053802;28;20213;-65
2023/08/18 05:02:42;;;;;;;5.88;5.22;;;;;;;;;;5060824;28;20217;-66
2023/08/18 05:05:09;;;;;;;5.85;5.18;;;;;;;;;;5062100;28;20707;-69
2023/08/18 05:07:37;;;;;;;6.95;5.60;;;;;;;;;;5060239;28;20218;-67
2023/08/18 05:10:04;;;;;;;6.75;5.97;;;;;;;;;;5052530;28;20891;-65
2023/08/18 05:12:32;;;;;;;11.75;5.30;;;;;;;;;;5056504;28;20202;-66
2023/08/18 05:14:59;;;;;;;6.00;5.38;;;;;;;;;;5060852;28;20201;-67
2023/08/18 05:17:27;;;;;;;6.80;5.30;;;;;;;;;;5059005;28;20283;-66
2023/08/18 05:19:54;;;;;;;6.25;5.20;;;;;;;;;;5067089;28;20197;-69
2023/08/18 05:22:22;;;;;;;7.95;4.95;;;;;;;;;;5064677;28;20250;-66
2023/08/18 05:24:49;;;;;;;6.30;4.60;;;;;;;;;;5063862;28;20544;-65
2023/08/18 05:27:17;;;;;;;5.80;5.20;;;;;;;;;;5061911;28;20222;-65
2023/08/18 05:29:44;;;;;;;5.90;4.78;;;;;;;;;;5062302;28;20583;-66
2023/08/18 05:32:11;;;;;;;5.90;5.03;;;;;;;;;;5055995;28;20205;-65
2023/08/18 05:34:39;;;;;;;7.82;5.32;;;;;;;;;;5054318;28;20202;-66
2023/08/18 05:37:06;;;;;;;8.15;5.60;;;;;;;;;;5060164;28;20311;-69
2023/08/18 05:39:33;;;;;;;6.00;5.50;;;;;;;;;;5056166;28;20197;-66
2023/08/18 05:42:01;;;;;;;5.70;5.20;;;;;;;;;;5052474;28;20206;-66
2023/08/18 05:44:29;;;;;;;5.90;5.03;;;;;;;;;;5059877;28;20261;-67
2023/08/18 05:46:56;;;;;;;5.63;4.50;;;;;;;;;;5058630;28;20218;-65
2023/08/18 05:49:24;;;;;;;6.53;4.35;;;;;;;;;;5059983;28;20228;-65
2023/08/18 05:51:51;;;;;;;5.75;4.47;;;;;;;;;;5054781;28;20217;-65
2023/08/18 05:54:18;;;;;;;5.28;4.40;;;;;;;;;;5062501;28;20206;-69
2023/08/18 05:56:46;;;;;;;6.18;3.83;;;;;;;;;;5065001;28;20221;-66
2023/08/18 05:59:13;;;;;;;4.03;3.63;;;;;;;;;;5069870;28;20399;-69
2023/08/18 06:01:40;;;;;;;5.13;3.90;;;;;;;;;;5062751;28;20243;-65
2023/08/18 06:04:08;;;;;;;4.43;3.97;;;;;;;;;;5065333;28;20209;-65
2023/08/18 06:06:36;;;;;;;4.15;3.20;;;;;;;;;;5055525;28;20720;-67
2023/08/18 06:09:03;;;;;;;4.10;3.60;;;;;;;;;;5053971;28;20214;-66
2023/08/18 06:11:30;;;;;;;3.72;3.42;;;;;;;;;;5060761;28;20262;-66
2023/08/18 06:13:59;;;;;;;3.90;3.60;;;;;;;;;;5054254;28;20194;-68
2023/08/18 06:16:26;;;;;;;3.53;3.22;;;;;;;;;;5061012;28;20226;-66
2023/08/18 06:18:54;;;;;;;4.18;3.00;;;;;;;;;;5049456;28;20213;-72
2023/08/18 06:21:21;;;;;;;3.22;2.83;;;;;;;;;;5054354;28;20737;-67
2023/08/18 06:23:48;;;;;;;4.38;3.30;;;;;;;;;;5059597;28;20255;-65
2023/08/18 06:26:15;;;;;;;3.40;2.80;;;;;;;;;;5054984;28;20698;-65
2023/08/18 06:28:43;;;;;;;3.92;2.88;;;;;;;;;;5056342;28;20197;-65
2023/08/18 06:31:10;;;;;;;3.55;3.10;;;;;;;;;;5058997;28;20283;-64
2023/08/18 06:33:37;;;;;;;4.28;2.88;;;;;;;;;;5061073;28;20350;-66
2023/08/18 06:36:05;;;;;;;2.67;2.47;;;;;;;;;;5052409;28;20210;-66
2023/08/18 06:38:32;;;;;;;4.20;2.88;;;;;;;;;;5057090;28;20229;-65
2023/08/18 06:40:59;;;;;;;2.70;2.50;;;;;;;;;;5058092;28;20202;-69
2023/08/18 06:43:27;;;;;;;2.85;2.65;;;;;;;;;;5053461;28;20212;-67
2023/08/18 06:45:54;;;;;;;3.15;2.83;;;;;;;;;;5065529;28;20225;-68
2023/08/18 06:48:21;;;;;;;3.03;2.67;;;;;;;;;;5060384;28;20205;-67
2023/08/18 06:50:48;;;;;;;5.75;2.60;;;;;;;;;;5060629;28;20244;-65
2023/08/18 06:53:16;;;;;;;4.72;2.70;;;;;;;;;;5056398;28;20426;-65
2023/08/18 06:55:43;;;;;;;3.78;2.50;;;;;;;;;;5064406;28;20425;-65
2023/08/18 06:58:29;;;;;;;2.63;2.40;;;;;;;;;;5061573;28;20197;-64
2023/08/18 07:00:56;;;;;;;4.00;2.33;;;;;;;;;;5065365;28;20607;-64
2023/08/18 07:03:24;;;;;;;4.82;2.42;;;;;;;;;;5060588;28;20206;-68
2023/08/18 07:05:51;;;;;;;3.70;2.60;;;;;;;;;;5061168;28;20252;-65
2023/08/18 07:08:18;;;;;;;3.85;2.47;;;;;;;;;;5056451;28;20247;-68
2023/08/18 07:10:46;;;;;;;4.70;2.85;;;;;;;;;;5020651;28;1160543;-68
2023/08/18 07:13:13;;;;;;;3.53;2.50;;;;;;;;;;5058102;28;21103;-66
2023/08/18 07:15:40;;;;;;;2.67;2.47;;;;;;;;;;5058530;28;20213;-68
2023/08/18 07:18:07;;;;;;;3.05;2.70;;;;;;;;;;5053880;28;20226;-65
2023/08/18 07:20:35;;;;;;;3.17;2.63;;;;;;;;;;5062863;28;20210;-65
2023/08/18 07:23:03;;;;;;;3.25;2.70;;;;;;;;;;5057976;28;20213;-67
2023/08/18 07:25:31;;;;;;;4.78;2.30;;;;;;;;;;5058195;28;20229;-66
2023/08/18 07:27:58;;;;;;;2.97;2.40;;;;;;;;;;5057892;28;20250;-66
2023/08/18 07:30:25;;;;;;;3.03;2.50;;;;;;;;;;5064132;28;20205;-65
2023/08/18 07:32:54;;;;;;;3.88;2.50;;;;;;;;;;5060954;28;20217;-64
2023/08/18 07:35:21;;;;;;;2.58;2.38;;;;;;;;;;5061035;28;20210;-65
2023/08/18 07:37:49;;;;;;;4.38;2.60;;;;;;;;;;5057359;28;20222;-64
2023/08/18 07:40:19;;;;;;;3.20;2.42;;;;;;;;;;5059792;28;20222;-64
2023/08/18 07:42:46;;;;;;;2.90;2.45;;;;;;;;;;5059362;28;20206;-66
2023/08/18 07:45:14;;;;;;;3.05;2.30;;;;;;;;;;5061622;28;20240;-67
2023/08/18 07:47:45;;;;;;;2.53;2.28;;;;;;;;;;5058610;28;20222;-66
2023/08/18 07:50:12;;;;;;;2.70;2.50;;;;;;;;;;5060817;28;20288;-66
2023/08/18 07:52:41;;;;;;;4.10;2.67;;;;;;;;;;5056487;28;20198;-64
2023/08/18 07:55:08;;;;;;;3.97;2.50;;;;;;;;;;5063052;28;20208;-69
2023/08/18 07:57:39;;;;;;;3.30;2.30;;;;;;;;;;5058642;28;20218;-64
2023/08/18 08:00:10;;;;;;;3.78;2.60;;;;;;;;;;5060877;28;20570;-69
2023/08/18 08:02:37;;;;;;;2.88;2.13;;;;;;;;;;5057124;28;20202;-65
2023/08/18 08:05:05;;;;;;;3.63;2.33;;;;;;;;;;5060171;28;20241;-68
2023/08/18 08:07:33;;;;;;;3.30;2.28;;;;;;;;;;5064280;28;20217;-70
2023/08/18 08:10:04;;;;;;;3.75;2.30;;;;;;;;;;5059275;28;20626;-68
2023/08/18 08:12:32;;;;;;;2.65;2.30;;;;;;;;;;5064352;28;20260;-68
2023/08/18 08:14:59;;;;;;;2.40;2.20;;;;;;;;;;5059128;28;20233;-66
2023/08/18 08:17:29;;;;;;;2.58;2.38;;;;;;;;;;5060864;28;20226;-65
2023/08/18 08:19:58;;;;;;;2.50;2.20;;;;;;;;;;5055739;28;20210;-65
2023/08/18 08:22:25;;;;;;;2.63;2.20;;;;;;;;;;5063374;28;20205;-66
2023/08/18 08:24:55;;;;;;;3.38;2.30;;;;;;;;;;5060472;28;20210;-66
2023/08/18 08:27:22;;;;;;;3.03;2.00;;;;;;;;;;5057729;28;20254;-63
2023/08/18 08:29:51;;;;;;;2.50;2.30;;;;;;;;;;5054043;28;20195;-65
2023/08/18 08:32:19;;;;;;;3.25;2.20;;;;;;;;;;5059299;28;20209;-65
2023/08/18 08:34:49;;;;;;;2.65;1.95;;;;;;;;;;5061720;28;20210;-65
2023/08/18 08:37:17;;;;;;;2.47;2.20;;;;;;;;;;5061487;28;20222;-66
2023/08/18 08:39:45;;;;;;;2.60;2.40;;;;;;;;;;5064742;28;20202;-64
2023/08/18 08:42:14;;;;;;;3.22;2.30;;;;;;;;;;5057893;28;20210;-66
2023/08/18 08:44:42;;;;;;;5.18;2.30;;;;;;;;;;5063323;28;20194;-71
2023/08/18 08:47:10;;;;;;;4.55;2.50;;;;;;;;;;5067611;28;20217;-74
2023/08/18 08:49:45;;;;;;;2.55;2.38;;;;;;;;;;5084361;28;20186;-71
2023/08/18 08:52:16;;;;;;;3.15;2.20;;;;;;;;;;5066739;28;20668;-65
2023/08/18 08:54:50;;;;;;;4.40;2.33;;;;;;;;;;5066960;28;20214;-67
2023/08/18 08:57:18;;;;;;;4.43;2.60;;;;;;;;;;5060899;28;20601;-67
2023/08/18 08:59:46;;;;;;;3.55;2.15;;;;;;;;;;5060217;28;20264;-69
2023/08/18 09:02:13;;;;;;;2.70;2.47;;;;;;;;;;5059743;28;20603;-65
2023/08/18 09:04:40;;;;;;;4.45;2.30;;;;;;;;;;5061705;28;20293;-65
2023/08/18 09:07:12;;;;;;;4.00;2.17;;;;;;;;;;5055645;28;20226;-69
2023/08/18 09:09:40;;;;;;;2.88;2.55;;;;;;;;;;5059941;28;20209;-65
2023/08/18 09:12:07;;;;;;;2.78;1.85;;;;;;;;;;5065695;28;20205;-66
2023/08/18 09:14:35;;;;;;;3.42;2.42;;;;;;;;;;5063573;28;20194;-66
2023/08/18 09:17:03;;;;;;;3.13;2.42;;;;;;;;;;5056181;28;20706;-67
2023/08/18 09:19:30;;;;;;;3.55;2.45;;;;;;;;;;5058609;28;20235;-65
2023/08/18 09:21:59;;;;;;;3.92;2.33;;;;;;;;;;5053811;28;20206;-64
2023/08/18 09:24:29;;;;;;;2.88;2.50;;;;;;;;;;5054701;28;20270;-67
2023/08/18 09:27:05;;;;;;;2.80;2.20;;;;;;;;;;5052252;28;20226;-69
2023/08/18 09:29:33;;;;;;;2.88;2.55;;;;;;;;;;5057374;28;20205;-67
2023/08/18 09:32:02;;;;;;;3.60;2.63;;;;;;;;;;5055610;28;20202;-67
2023/08/18 09:34:32;;;;;;;2.40;2.20;;;;;;;;;;5059331;28;20240;-66
2023/08/18 09:36:59;;;;;;;3.00;2.45;;;;;;;;;;5059690;28;20283;-64
2023/08/18 09:39:26;;;;;;;4.47;2.45;;;;;;;;;;5058025;28;20210;-66
2023/08/18 09:41:54;;;;;;;6.60;2.40;;;;;;;;;;5059596;28;20205;-72
2023/08/18 09:44:24;;;;;;;3.50;2.95;;;;;;;;;;5061416;28;20201;-66
2023/08/18 09:46:55;;;;;;;4.90;2.67;;;;;;;;;;5058912;28;20302;-65
2023/08/18 09:49:23;;;;;;;4.32;2.38;;;;;;;;;;5065551;28;20598;-65
2023/08/18 09:51:52;;;;;;;3.63;2.40;;;;;;;;;;5059338;28;20206;-64
2023/08/18 09:54:20;;;;;;;3.13;2.40;;;;;;;;;;5050620;28;20644;-65
2023/08/18 09:56:51;;;;;;;3.58;2.40;;;;;;;;;;5058181;28;20786;-63
2023/08/18 09:59:40;;;;;;;6.68;2.67;;;;;;;;;;5054885;28;20205;-65
2023/08/18 10:02:08;;;;;;;6.20;2.55;;;;;;;;;;5054496;28;20213;-66
2023/08/18 10:04:39;;;;;;;4.22;2.78;;;;;;;;;;5057097;28;20205;-68
2023/08/18 10:07:07;;;;;;;2.55;2.35;;;;;;;;;;5058674;28;20441;-66
2023/08/18 10:09:35;;;;;;;3.53;2.30;;;;;;;;;;5058487;28;20212;-67
2023/08/18 10:12:02;;;;;;;3.33;2.63;;;;;;;;;;5060039;28;20202;-66
2023/08/18 10:14:31;;;;;;;5.93;2.50;;;;;;;;;;5056398;28;20206;-66
2023/08/18 10:17:00;;;;;;;2.40;2.20;;;;;;;;;;5057379;28;20230;-65
2023/08/18 10:19:49;;;;;;;5.75;2.60;;;;;;;;;;5070591;28;20198;-67
2023/08/18 10:22:18;;;;;;;3.25;2.83;;;;;;;;;;5056565;28;20209;-71
2023/08/18 10:24:46;;;;;;;4.55;2.65;;;;;;;;;;5060807;28;20748;-65
2023/08/18 10:27:14;;;;;;;3.65;2.80;;;;;;;;;;5053401;28;20241;-65
2023/08/18 10:29:43;;;;;;;3.33;3.03;;;;;;;;;;5055054;28;20260;-68
2023/08/18 10:32:12;;;;;;;3.30;3.00;;;;;;;;;;5054309;28;20254;-66
2023/08/18 10:34:39;;;;;;;3.13;2.80;;;;;;;;;;5055511;28;20202;-67
2023/08/18 10:37:08;;;;;;;5.05;2.88;;;;;;;;;;5057288;28;20792;-66
2023/08/18 10:39:40;;;;;;;4.22;2.40;;;;;;;;;;5058184;28;20260;-67
2023/08/18 10:42:08;;;;;;;2.83;2.42;;;;;;;;;;5062582;28;20259;-71
2023/08/18 10:44:36;;;;;;;4.45;2.50;;;;;;;;;;5059095;28;20248;-68
2023/08/18 10:47:03;;;;;;;3.20;2.30;;;;;;;;;;5053425;28;20980;-67
2023/08/18 10:49:31;;;;;;;4.57;2.78;;;;;;;;;;5056811;28;20212;-67
2023/08/18 10:52:03;;;;;;;3.08;2.70;;;;;;;;;;5059035;28;20202;-65
2023/08/18 10:54:30;;;;;;;4.35;2.20;;;;;;;;;;5054624;28;20260;-66
2023/08/18 10:56:57;;;;;;;2.97;2.70;;;;;;;;;;5058032;28;20244;-68
2023/08/18 10:59:24;;;;;;;4.07;2.25;;;;;;;;;;5055616;28;20900;-65
2023/08/18 11:01:52;;;;;;;3.70;2.45;;;;;;;;;;5057627;28;20888;-65
2023/08/18 11:04:19;;;;;;;3.53;2.35;;;;;;;;;;5056584;28;20251;-65
2023/08/18 11:06:47;;;;;;;3.97;2.55;;;;;;;;;;5051785;28;20225;-64
2023/08/18 11:09:15;;;;;;;4.75;2.10;;;;;;;;;;5055680;28;21476;-68
2023/08/18 11:11:42;;;;;;;5.63;2.30;;;;;;;;;;5058047;28;20194;-66
2023/08/18 11:14:09;;;;;;;3.55;2.17;;;;;;;;;;5054186;28;20211;-68
2023/08/18 11:16:37;;;;;;;2.67;2.00;;;;;;;;;;5056402;28;20295;-65
2023/08/18 11:19:05;;;;;;;4.70;2.25;;;;;;;;;;5056689;28;20259;-68
2023/08/18 11:21:34;;;;;;;2.97;2.08;;;;;;;;;;5056101;28;20238;-66
2023/08/18 11:24:04;;;;;;;3.95;1.98;;;;;;;;;;5056927;28;20225;-67
2023/08/18 11:26:35;;;;;;;4.88;2.42;;;;;;;;;;5056290;28;20222;-66
2023/08/18 11:29:04;;;;;;;3.78;2.00;;;;;;;;;;5060356;28;20737;-66
2023/08/18 11:31:31;;;;;;;3.40;1.70;;;;;;;;;;5058969;28;20201;-67
2023/08/18 11:33:59;;;;;;;2.65;2.08;;;;;;;;;;5054335;28;20194;-65
2023/08/18 11:36:30;;;;;;;3.97;2.22;;;;;;;;;;5068630;28;20229;-68
2023/08/18 11:39:02;;;;;;;4.70;2.00;;;;;;;;;;5065909;28;20202;-68
2023/08/18 11:41:38;;;;;;;3.90;2.08;;;;;;;;;;5058791;28;20198;-69
2023/08/18 11:44:07;;;;;;;4.10;1.85;;;;;;;;;;5062439;28;20212;-66
2023/08/18 11:46:35;;;;;;;5.43;2.05;;;;;;;;;;5058048;28;20302;-66
2023/08/18 11:49:03;;;;;;;6.50;2.10;;;;;;;;;;5059010;28;20291;-65
2023/08/18 11:51:31;;;;;;;4.55;1.88;;;;;;;;;;5056645;28;20209;-65
2023/08/18 11:53:58;;;;;;;6.85;2.28;;;;;;;;;;5056681;28;20245;-66
2023/08/18 11:56:27;;;;;;;3.60;2.28;;;;;;;;;;5060490;28;20221;-69
2023/08/18 11:58:54;;;;;;;5.35;2.17;;;;;;;;;;5060799;28;20208;-70
2023/08/18 12:01:22;;;;;;;3.72;2.03;;;;;;;;;;5061964;28;20205;-67
2023/08/18 12:03:56;;;;;;;4.00;2.38;;;;;;;;;;5061707;28;20738;-70
2023/08/18 12:06:24;;;;;;;5.32;2.10;;;;;;;;;;5059885;28;20232;-69
2023/08/18 12:08:51;;;;;;;3.45;1.70;;;;;;;;;;5060448;28;20300;-68
2023/08/18 12:11:19;;;;;;;3.45;2.33;;;;;;;;;;5061546;28;20197;-64
2023/08/18 12:13:46;;;;;;;3.67;2.03;;;;;;;;;;5055935;28;20206;-66
2023/08/18 12:16:14;;;;;;;6.53;2.30;;;;;;;;;;5065224;28;20764;-66
2023/08/18 12:18:42;;;;;;;5.18;2.40;;;;;;;;;;5057710;28;20202;-66
2023/08/18 12:21:09;;;;;;;5.82;2.22;;;;;;;;;;5058002;28;20209;-65
2023/08/18 12:23:37;;;;;;;6.00;2.17;;;;;;;;;;5060158;28;20224;-66
2023/08/18 12:26:04;;;;;;;4.15;2.10;;;;;;;;;;5062996;28;20293;-66
2023/08/18 12:28:33;;;;;;;4.78;2.38;;;;;;;;;;5061974;28;20201;-66
2023/08/18 12:31:00;;;;;;;5.00;2.40;;;;;;;;;;5053994;28;20204;-70
2023/08/18 12:33:28;;;;;;;5.32;1.83;;;;;;;;;;5057673;28;20284;-66
2023/08/18 12:35:55;;;;;;;5.22;2.38;;;;;;;;;;5062133;28;20679;-67
2023/08/18 12:38:23;;;;;;;5.75;2.08;;;;;;;;;;5055046;28;20201;-66
2023/08/18 12:40:50;;;;;;;3.92;2.20;;;;;;;;;;5057228;28;20206;-65
2023/08/18 12:43:17;;;;;;;6.53;2.10;;;;;;;;;;5051654;28;20254;-68
2023/08/18 12:45:44;;;;;;;4.82;2.38;;;;;;;;;;5056782;28;20216;-69
2023/08/18 12:48:12;;;;;;;3.78;2.25;;;;;;;;;;5059014;28;20220;-66
2023/08/18 12:50:39;;;;;;;5.72;2.63;;;;;;;;;;5059175;28;20215;-68
2023/08/18 12:53:07;;;;;;;5.00;2.20;;;;;;;;;;5056224;28;20205;-66
2023/08/18 12:55:34;;;;;;;5.70;2.45;;;;;;;;;;5058132;28;20596;-68
2023/08/18 12:58:01;;;;;;;6.30;2.17;;;;;;;;;;5052162;28;21280;-68
2023/08/18 13:00:29;;;;;;;6.10;2.38;;;;;;;;;;5055859;28;20205;-66
2023/08/18 13:02:56;;;;;;;5.97;2.55;;;;;;;;;;5055340;28;20213;-65
2023/08/18 13:05:23;;;;;;;6.78;2.30;;;;;;;;;;5058829;28;20205;-69
2023/08/18 13:07:52;;;;;;;4.43;2.10;;;;;;;;;;5057563;28;20225;-68
2023/08/18 13:10:19;;;;;;;3.35;2.05;;;;;;;;;;5057271;28;20205;-67
2023/08/18 13:12:47;;;;;;;3.60;2.08;;;;;;;;;;5056031;28;20197;-66
2023/08/18 13:15:14;;;;;;;7.50;2.50;;;;;;;;;;5057319;28;20206;-67
2023/08/18 13:17:42;;;;;;;6.85;2.33;;;;;;;;;;5053067;28;20143;-72
2023/08/18 13:20:09;;;;;;;5.82;2.63;;;;;;;;;;5053538;28;20224;-68
2023/08/18 13:22:37;;;;;;;;;;;;;;;;;;5061960;28;20559;-66
2023/08/18 13:25:05;;;;;;;;;;;;;;;;;;5060048;28;19924;-64
2023/08/18 13:27:35;;;;;;;;;;;;;;;;;;5059636;28;20631;-66
2023/08/18 13:30:02;;;;;;;;;;;;;;;;;;5060873;28;20394;-66
2023/08/18 13:32:29;;;;;;;;;;;;;;;;;;5057444;28;20564;-65
2023/08/18 13:34:57;;;;;;;5.97;2.13;;;;;;;;;;5055646;28;20338;-64
2023/08/18 13:37:24;;;;;;;5.55;2.22;;;;;;;;;;5058444;28;20309;-66
2023/08/18 13:39:52;;;;;;;5.03;2.50;;;;;;;;;;5053044;28;20618;-67
2023/08/18 13:42:21;;;;;;;8.13;2.40;;;;;;;;;;5057896;28;20209;-68
2023/08/18 13:44:48;;;;;;;3.97;2.00;;;;;;;;;;5058957;28;20282;-66
2023/08/18 13:47:16;;;;;;;8.68;2.65;;;;;;;;;;5057993;28;20225;-65
2023/08/18 13:49:43;;;;;;;6.78;2.35;;;;;;;;;;5054976;28;20193;-69
2023/08/18 13:52:10;;;;;;;6.30;2.05;;;;;;;;;;5048164;28;20197;-65
2023/08/18 13:54:38;;;;;;;4.95;2.47;;;;;;;;;;5050426;28;20209;-68
2023/08/18 13:57:05;;;;;;;6.45;2.58;;;;;;;;;;5053279;28;20229;-71
2023/08/18 13:59:32;;;;;;;8.40;2.58;;;;;;;;;;5056988;28;20201;-66
2023/08/18 14:02:00;;;;;;;5.60;2.20;;;;;;;;;;5059688;28;20617;-67
2023/08/18 14:04:28;;;;;;;6.88;2.63;;;;;;;;;;5055050;28;20275;-66
2023/08/18 14:06:56;;;;;;;5.65;2.30;;;;;;;;;;5054780;28;20236;-69
2023/08/18 14:09:27;;;;;;;5.95;2.63;;;;;;;;;;5053026;28;20205;-69
2023/08/18 14:11:54;;;;;;;5.40;2.20;;;;;;;;;;5054729;28;20209;-69
2023/08/18 14:14:21;;;;;;;5.57;2.42;;;;;;;;;;5053524;28;20210;-68
2023/08/18 14:16:48;;;;;;;6.53;2.30;;;;;;;;;;5054470;28;20225;-65
2023/08/18 14:19:16;;;;;;;6.45;2.40;;;;;;;;;;5056136;28;20214;-70
2023/08/18 14:21:44;;;;;;;8.07;2.35;;;;;;;;;;5070994;28;20200;-68
2023/08/18 14:24:12;;;;;;;8.52;2.47;;;;;;;;;;5061092;28;20208;-69
2023/08/18 14:26:40;;;;;;;5.75;2.38;;;;;;;;;;5058364;28;20224;-66
2023/08/18 14:29:07;;;;;;;6.68;2.30;;;;;;;;;;5055837;28;20208;-70
2023/08/18 14:31:34;;;;;;;7.82;2.50;;;;;;;;;;5058057;28;20449;-66
2023/08/18 14:34:01;;;;;;;9.73;2.92;;;;;;;;;;5055034;28;20201;-65
2023/08/18 14:36:29;;;;;;;8.80;3.20;;;;;;;;;;5058392;28;20213;-66
2023/08/18 14:38:58;;;;;;;5.47;2.67;;;;;;;;;;5072459;28;20196;-65
2023/08/18 14:41:26;;;;;;;7.10;2.90;;;;;;;;;;5054277;28;20668;-67
2023/08/18 14:43:53;;;;;;;7.35;2.47;;;;;;;;;;5058839;28;20198;-66
2023/08/18 14:46:20;;;;;;;5.38;2.17;;;;;;;;;;5044570;28;20348;-69
2023/08/18 14:48:48;;;;;;;4.32;2.95;;;;;;;;;;5057888;28;20224;-68
2023/08/18 14:51:15;;;;;;;7.15;2.85;;;;;;;;;;5056033;28;20263;-68